createdAt,value
2023-03-06T00:00:05.278Z,1.1
2023-03-06T00:01:08.767Z,1.1
2023-03-06T00:02:11.411Z,1
2023-03-06T00:03:14.858Z,1.1
2023-03-06T00:04:18.051Z,1.1
2023-03-06T00:05:20.858Z,1.1
2023-03-06T00:06:23.638Z,1.1
2023-03-06T00:07:26.142Z,1.1
2023-03-06T00:08:29.193Z,1.1
2023-03-06T00:09:32.538Z,1.1
2023-03-06T00:10:35.939Z,1.1
2023-03-06T00:11:39.575Z,1.1
2023-03-06T00:12:42.005Z,1.1
2023-03-06T00:13:45.149Z,1.1
2023-03-06T00:14:48.706Z,1.1
2023-03-06T00:15:52.762Z,1.1
2023-03-06T00:16:55.708Z,1.1
2023-03-06T00:17:59.047Z,1.1
2023-03-06T00:19:02.095Z,1
2023-03-06T00:20:05.509Z,1
2023-03-06T00:21:08.804Z,1
2023-03-06T00:22:11.794Z,1
2023-03-06T00:23:14.936Z,1
2023-03-06T00:24:18.029Z,1
2023-03-06T00:25:21.366Z,1
2023-03-06T00:26:24.366Z,1
2023-03-06T00:27:27.429Z,1
2023-03-06T00:28:30.520Z,1
2023-03-06T00:29:33.630Z,1
2023-03-06T00:30:37.129Z,1
2023-03-06T00:31:40.194Z,1
2023-03-06T00:32:43.310Z,1
2023-03-06T00:33:46.020Z,1.1
2023-03-06T00:34:49.442Z,1.1
2023-03-06T00:35:52.403Z,1.1
2023-03-06T00:36:55.621Z,1.1
2023-03-06T00:37:58.887Z,1.1
2023-03-06T00:39:02.293Z,1.1
2023-03-06T00:40:06.019Z,1.2
2023-03-06T00:41:09.015Z,1.2
2023-03-06T00:42:11.745Z,1.2
2023-03-06T00:43:14.815Z,1.2
2023-03-06T00:44:17.360Z,1.2
2023-03-06T00:45:20.638Z,1.2
2023-03-06T00:46:24.470Z,1.2
2023-03-06T00:47:27.591Z,1.2
2023-03-06T00:48:31.258Z,1.2
2023-03-06T00:49:35.017Z,1.3
2023-03-06T00:50:38.212Z,1.3
2023-03-06T00:51:40.822Z,1.3
2023-03-06T00:52:43.887Z,1.3
2023-03-06T00:53:47.587Z,1.3
2023-03-06T00:54:49.774Z,1.3
2023-03-06T00:55:53.784Z,1.2
2023-03-06T00:56:56.870Z,1.2
2023-03-06T00:58:00.222Z,1.2
2023-03-06T00:59:03.378Z,1.1
2023-03-06T01:00:07.098Z,1.1
2023-03-06T01:01:11.113Z,1.1
2023-03-06T01:02:15.404Z,1.1
2023-03-06T01:03:18.608Z,1
2023-03-06T01:04:22.047Z,1
2023-03-06T01:05:24.773Z,1
2023-03-06T01:06:28.208Z,1.1
2023-03-06T01:07:31.107Z,1.1
2023-03-06T01:08:33.784Z,1.1
2023-03-06T01:09:37.174Z,1
2023-03-06T01:10:39.630Z,1.1
2023-03-06T01:11:42.830Z,1
2023-03-06T01:12:45.897Z,1
2023-03-06T01:13:48.494Z,1
2023-03-06T01:14:51.631Z,1
2023-03-06T01:15:54.395Z,1
2023-03-06T01:16:56.916Z,1
2023-03-06T01:18:01.033Z,1.1
2023-03-06T01:19:04.139Z,1.1
2023-03-06T01:20:06.910Z,1
2023-03-06T01:21:10.326Z,1
2023-03-06T01:22:14.054Z,1
2023-03-06T01:23:16.942Z,1
2023-03-06T01:24:20.144Z,1
2023-03-06T01:25:22.935Z,1
2023-03-06T01:26:26.235Z,1
2023-03-06T01:27:29.675Z,1
2023-03-06T01:28:32.548Z,1
2023-03-06T01:29:36.183Z,1
2023-03-06T01:30:39.808Z,1
2023-03-06T01:31:43.484Z,1
2023-03-06T01:32:46.642Z,1.1
2023-03-06T01:33:50.476Z,1.1
2023-03-06T01:34:53.669Z,1.1
2023-03-06T01:35:56.845Z,1
2023-03-06T01:36:59.080Z,1
2023-03-06T01:38:02.448Z,1
2023-03-06T01:39:05.447Z,1
2023-03-06T01:40:08.858Z,1
2023-03-06T01:41:12.223Z,1
2023-03-06T01:42:14.947Z,1
2023-03-06T01:43:17.950Z,1
2023-03-06T01:44:21.316Z,1
2023-03-06T01:45:24.406Z,1
2023-03-06T01:46:27.864Z,1
2023-03-06T01:47:31.270Z,1
2023-03-06T01:48:34.627Z,1
2023-03-06T01:49:38.787Z,1
2023-03-06T01:50:41.822Z,1
2023-03-06T01:51:45.610Z,1
2023-03-06T01:52:48.623Z,1
2023-03-06T01:53:51.376Z,0.9
2023-03-06T01:54:54.436Z,0.9
2023-03-06T01:55:57.811Z,0.9
2023-03-06T01:57:01.594Z,0.9
2023-03-06T01:58:04.992Z,0.9
2023-03-06T01:59:08.447Z,0.8
2023-03-06T02:00:11.786Z,0.8
2023-03-06T02:01:15.474Z,0.8
2023-03-06T02:02:18.526Z,0.8
2023-03-06T02:03:21.330Z,0.8
2023-03-06T02:04:24.472Z,0.8
2023-03-06T02:05:28.274Z,0.8
2023-03-06T02:06:31.385Z,0.8
2023-03-06T02:07:34.147Z,0.8
2023-03-06T02:08:37.561Z,0.8
2023-03-06T02:09:40.738Z,0.8
2023-03-06T02:10:43.715Z,0.8
2023-03-06T02:11:47.558Z,0.8
2023-03-06T02:12:50.415Z,0.8
2023-03-06T02:13:53.419Z,0.8
2023-03-06T02:14:56.527Z,0.8
2023-03-06T02:15:59.874Z,0.8
2023-03-06T02:17:03.668Z,0.8
2023-03-06T02:18:07.399Z,0.8
2023-03-06T02:19:10.413Z,0.8
2023-03-06T02:20:12.854Z,0.7
2023-03-06T02:21:16.379Z,0.8
2023-03-06T02:22:19.556Z,0.7
2023-03-06T02:23:23.267Z,0.7
2023-03-06T02:24:25.701Z,0.7
2023-03-06T02:25:28.894Z,0.7
2023-03-06T02:26:31.683Z,0.8
2023-03-06T02:27:34.964Z,0.8
2023-03-06T02:28:37.682Z,0.8
2023-03-06T02:29:41.030Z,0.7
2023-03-06T02:30:43.960Z,0.7
2023-03-06T02:31:47.210Z,0.8
2023-03-06T02:32:50.556Z,0.7
2023-03-06T02:33:52.957Z,0.7
2023-03-06T02:34:55.770Z,0.7
2023-03-06T02:35:59.506Z,0.7
2023-03-06T02:37:03.411Z,0.7
2023-03-06T02:38:06.244Z,0.7
2023-03-06T02:39:09.899Z,0.6
2023-03-06T02:40:13.004Z,0.6
2023-03-06T02:41:15.838Z,0.6
2023-03-06T02:42:18.554Z,0.6
2023-03-06T02:43:21.716Z,0.5
2023-03-06T02:44:24.226Z,0.5
2023-03-06T02:45:27.494Z,0.5
2023-03-06T02:46:30.012Z,0.5
2023-03-06T02:47:33.247Z,0.5
2023-03-06T02:48:36.354Z,0.6
2023-03-06T02:49:39.821Z,0.6
2023-03-06T02:50:43.163Z,0.6
2023-03-06T02:51:46.499Z,0.6
2023-03-06T02:52:50.287Z,0.6
2023-03-06T02:53:52.848Z,0.6
2023-03-06T02:54:55.973Z,0.6
2023-03-06T02:55:58.880Z,0.6
2023-03-06T02:57:02.292Z,0.6
2023-03-06T02:58:06.285Z,0.6
2023-03-06T02:59:09.994Z,0.5
2023-03-06T03:00:13.292Z,0.6
2023-03-06T03:01:16.551Z,0.6
2023-03-06T03:02:19.714Z,0.6
2023-03-06T03:03:22.803Z,0.6
2023-03-06T03:04:26.227Z,0.6
2023-03-06T03:05:29.060Z,0.6
2023-03-06T03:06:32.676Z,0.6
2023-03-06T03:07:35.477Z,0.6
2023-03-06T03:08:39.579Z,0.6
2023-03-06T03:09:42.334Z,0.6
2023-03-06T03:10:46.006Z,0.6
2023-03-06T03:11:49.171Z,0.6
2023-03-06T03:12:51.961Z,0.6
2023-03-06T03:13:55.120Z,0.6
2023-03-06T03:14:57.901Z,0.6
2023-03-06T03:16:01.549Z,0.6
2023-03-06T03:17:04.712Z,0.6
2023-03-06T03:18:07.763Z,0.5
2023-03-06T03:19:10.193Z,0.5
2023-03-06T03:20:12.622Z,0.5
2023-03-06T03:21:15.770Z,0.5
2023-03-06T03:22:17.924Z,0.4
2023-03-06T03:23:21.371Z,0.4
2023-03-06T03:24:25.203Z,0.4
2023-03-06T03:25:27.798Z,0.5
2023-03-06T03:26:31.506Z,0.5
2023-03-06T03:27:34.862Z,0.5
2023-03-06T03:28:38.033Z,0.5
2023-03-06T03:29:40.454Z,0.5
2023-03-06T03:30:43.406Z,0.5
2023-03-06T03:31:46.653Z,0.5
2023-03-06T03:32:50.663Z,0.5
2023-03-06T03:33:53.121Z,0.5
2023-03-06T03:34:56.303Z,0.4
2023-03-06T03:35:59.246Z,0.4
2023-03-06T03:37:02.594Z,0.4
2023-03-06T03:38:05.966Z,0.4
2023-03-06T03:39:09.328Z,0.4
2023-03-06T03:40:13.215Z,0.4
2023-03-06T03:41:15.749Z,0.4
2023-03-06T03:42:19.321Z,0.4
2023-03-06T03:43:22.700Z,0.4
2023-03-06T03:44:25.488Z,0.4
2023-03-06T03:45:29.215Z,0.3
2023-03-06T03:46:33.033Z,0.3
2023-03-06T03:47:36.214Z,0.3
2023-03-06T03:48:38.956Z,0.2
2023-03-06T03:49:42.353Z,0.2
2023-03-06T03:50:45.528Z,0.2
2023-03-06T03:51:48.616Z,0.2
2023-03-06T03:52:52.006Z,0.2
2023-03-06T03:53:56.007Z,0.2
2023-03-06T03:54:59.133Z,0.2
2023-03-06T03:56:03.193Z,0.2
2023-03-06T03:57:05.927Z,0.2
2023-03-06T03:58:09.014Z,0.2
2023-03-06T03:59:11.773Z,0.1
2023-03-06T04:00:14.558Z,0.1
2023-03-06T04:01:16.995Z,0.1
2023-03-06T04:02:20.065Z,0.1
2023-03-06T04:03:23.367Z,0.1
2023-03-06T04:04:26.904Z,0.1
2023-03-06T04:05:29.458Z,0
2023-03-06T04:06:32.895Z,0
2023-03-06T04:07:36.280Z,0
2023-03-06T04:08:39.315Z,0
2023-03-06T04:09:43.041Z,0
2023-03-06T04:10:45.772Z,0
2023-03-06T04:11:49.864Z,0.1
2023-03-06T04:12:53.280Z,0
2023-03-06T04:13:56.322Z,0.1
2023-03-06T04:15:00.069Z,0.1
2023-03-06T04:16:03.461Z,0.1
2023-03-06T04:17:06.876Z,0.1
2023-03-06T04:18:10.355Z,0.1
2023-03-06T04:19:13.137Z,0.1
2023-03-06T04:20:16.863Z,0
2023-03-06T04:21:19.589Z,0
2023-03-06T04:22:22.663Z,0
2023-03-06T04:23:26.737Z,0
2023-03-06T04:24:30.181Z,0
2023-03-06T04:25:33.181Z,-0.1
2023-03-06T04:26:36.378Z,-0.1
2023-03-06T04:27:40.192Z,-0.1
2023-03-06T04:28:43.654Z,-0.1
2023-03-06T04:29:46.732Z,-0.1
2023-03-06T04:30:50.472Z,-0.1
2023-03-06T04:31:52.998Z,-0.1
2023-03-06T04:32:56.712Z,-0.1
2023-03-06T04:33:59.560Z,-0.1
2023-03-06T04:35:03.583Z,-0.1
2023-03-06T04:36:06.426Z,-0.1
2023-03-06T04:37:10.151Z,-0.1
2023-03-06T04:38:13.529Z,-0.1
2023-03-06T04:39:16.714Z,-0.2
2023-03-06T04:40:19.389Z,-0.2
2023-03-06T04:41:23.091Z,-0.2
2023-03-06T04:42:26.226Z,-0.2
2023-03-06T04:43:30.011Z,-0.2
2023-03-06T04:44:33.875Z,-0.3
2023-03-06T04:45:37.866Z,-0.3
2023-03-06T04:46:41.595Z,-0.3
2023-03-06T04:47:44.854Z,-0.3
2023-03-06T04:48:48.589Z,-0.3
2023-03-06T04:49:51.370Z,-0.3
2023-03-06T04:50:54.742Z,-0.3
2023-03-06T04:51:58.449Z,-0.3
2023-03-06T04:53:01.799Z,-0.4
2023-03-06T04:54:05.085Z,-0.4
2023-03-06T04:55:08.811Z,-0.4
2023-03-06T04:56:12.236Z,-0.4
2023-03-06T04:57:15.446Z,-0.4
2023-03-06T04:58:18.925Z,-0.4
2023-03-06T04:59:23.062Z,-0.4
2023-03-06T05:00:26.235Z,-0.4
2023-03-06T05:01:29.463Z,-0.4
2023-03-06T05:02:32.154Z,-0.4
2023-03-06T05:03:35.528Z,-0.4
2023-03-06T05:04:38.395Z,-0.4
2023-03-06T05:05:41.452Z,-0.4
2023-03-06T05:06:44.278Z,-0.4
2023-03-06T05:07:47.481Z,-0.4
2023-03-06T05:08:50.273Z,-0.4
2023-03-06T05:09:53.552Z,-0.4
2023-03-06T05:10:56.654Z,-0.4
2023-03-06T05:11:59.151Z,-0.4
2023-03-06T05:13:01.625Z,-0.4
2023-03-06T05:14:05.327Z,-0.4
2023-03-06T05:15:08.554Z,-0.4
2023-03-06T05:16:12.709Z,-0.5
2023-03-06T05:17:15.913Z,-0.4
2023-03-06T05:18:19.178Z,-0.4
2023-03-06T05:19:21.933Z,-0.5
2023-03-06T05:20:25.913Z,-0.5
2023-03-06T05:21:29.268Z,-0.5
2023-03-06T05:22:31.517Z,-0.5
2023-03-06T05:23:35.170Z,-0.5
2023-03-06T05:24:37.600Z,-0.5
2023-03-06T05:25:41.033Z,-0.5
2023-03-06T05:26:43.847Z,-0.6
2023-03-06T05:27:47.310Z,-0.6
2023-03-06T05:28:50.474Z,-0.6
2023-03-06T05:29:53.309Z,-0.6
2023-03-06T05:30:57.398Z,-0.6
2023-03-06T05:32:01.415Z,-0.6
2023-03-06T05:33:05.005Z,-0.6
2023-03-06T05:34:08.557Z,-0.7
2023-03-06T05:35:11.620Z,-0.7
2023-03-06T05:36:15.335Z,-0.8
2023-03-06T05:37:20.046Z,-0.8
2023-03-06T05:38:23.464Z,-0.7
2023-03-06T05:39:26.259Z,-0.7
2023-03-06T05:40:28.676Z,-0.6
2023-03-06T05:41:31.468Z,-0.6
2023-03-06T05:42:34.944Z,-0.7
2023-03-06T05:43:38.658Z,-0.7
2023-03-06T05:44:40.610Z,-0.7
2023-03-06T05:45:43.949Z,-0.6
2023-03-06T05:46:47.857Z,-0.6
2023-03-06T05:47:50.903Z,-0.6
2023-03-06T05:48:54.293Z,-0.5
2023-03-06T05:49:57.427Z,-0.5
2023-03-06T05:51:00.355Z,-0.5
2023-03-06T05:52:02.962Z,-0.5
2023-03-06T05:53:05.498Z,-0.5
2023-03-06T05:54:08.064Z,-0.5
2023-03-06T05:55:10.919Z,-0.5
2023-03-06T05:56:14.316Z,-0.4
2023-03-06T05:57:17.819Z,-0.4
2023-03-06T05:58:21.238Z,-0.4
2023-03-06T05:59:23.792Z,-0.3
2023-03-06T06:00:26.953Z,-0.4
2023-03-06T06:01:29.979Z,-0.4
2023-03-06T06:02:33.737Z,-0.4
2023-03-06T06:03:37.482Z,-0.4
2023-03-06T06:04:41.069Z,-0.4
2023-03-06T06:05:44.083Z,-0.4
2023-03-06T06:06:46.921Z,-0.4
2023-03-06T06:07:50.078Z,-0.4
2023-03-06T06:08:53.148Z,-0.4
2023-03-06T06:09:56.012Z,-0.5
2023-03-06T06:10:58.781Z,-0.4
2023-03-06T06:12:01.594Z,-0.4
2023-03-06T06:13:04.778Z,-0.4
2023-03-06T06:14:07.492Z,-0.4
2023-03-06T06:15:10.958Z,-0.4
2023-03-06T06:16:14.367Z,-0.4
2023-03-06T06:17:16.654Z,-0.5
2023-03-06T06:18:20.734Z,-0.4
2023-03-06T06:19:23.806Z,-0.4
2023-03-06T06:20:27.308Z,-0.4
2023-03-06T06:21:30.435Z,-0.5
2023-03-06T06:22:33.264Z,-0.4
2023-03-06T06:23:36.049Z,-0.4
2023-03-06T06:24:39.046Z,-0.4
2023-03-06T06:25:42.201Z,-0.4
2023-03-06T06:26:45.046Z,-0.4
2023-03-06T06:27:48.742Z,-0.3
2023-03-06T06:28:51.188Z,-0.3
2023-03-06T06:29:53.704Z,-0.3
2023-03-06T06:30:57.400Z,-0.2
2023-03-06T06:32:00.812Z,-0.2
2023-03-06T06:33:03.406Z,-0.2
2023-03-06T06:34:06.886Z,-0.2
2023-03-06T06:35:09.921Z,-0.2
2023-03-06T06:36:13.272Z,-0.3
2023-03-06T06:37:16.005Z,-0.4
2023-03-06T06:38:19.411Z,-0.4
2023-03-06T06:39:23.445Z,-0.4
2023-03-06T06:40:26.817Z,-0.4
2023-03-06T06:42:40.491Z,-0.4
2023-03-06T06:43:44.410Z,-0.4
2023-03-06T06:44:47.524Z,-0.4
2023-03-06T06:45:57.404Z,-0.4
2023-03-06T06:48:26.401Z,-0.4
2023-03-06T06:49:30.819Z,-0.3
2023-03-06T06:50:33.836Z,-0.3
2023-03-06T06:51:37.595Z,-0.3
2023-03-06T06:52:41.258Z,-0.3
2023-03-06T06:53:44.623Z,-0.2
2023-03-06T06:54:47.833Z,-0.2
2023-03-06T06:55:51.343Z,-0.2
2023-03-06T06:56:54.807Z,-0.1
2023-03-06T06:57:57.261Z,-0.1
2023-03-06T06:59:19.037Z,0
2023-03-06T07:00:21.818Z,0
2023-03-06T07:01:26.046Z,0
2023-03-06T07:02:29.302Z,0.1
2023-03-06T07:03:33.443Z,0.1
2023-03-06T07:04:37.367Z,0
2023-03-06T07:05:40.213Z,0
2023-03-06T07:06:43.576Z,0
2023-03-06T07:07:46.406Z,0
2023-03-06T07:08:48.868Z,0
2023-03-06T07:09:52.370Z,0
2023-03-06T07:10:55.392Z,0
2023-03-06T07:11:58.488Z,-0.1
2023-03-06T07:13:01.917Z,-0.1
2023-03-06T07:14:05.574Z,-0.1
2023-03-06T07:15:08.935Z,0.1
2023-03-06T07:16:12.623Z,0.1
2023-03-06T07:17:16.025Z,0.1
2023-03-06T07:18:19.424Z,0.1
2023-03-06T07:19:22.613Z,0.2
2023-03-06T07:20:26.733Z,0.2
2023-03-06T07:21:30.070Z,0.2
2023-03-06T07:22:53.086Z,0.1
2023-03-06T07:23:56.642Z,0.2
2023-03-06T07:25:00.449Z,0.2
2023-03-06T07:26:03.537Z,0.2
2023-03-06T07:27:06.587Z,0.2
2023-03-06T07:28:09.400Z,0.2
2023-03-06T07:29:12.775Z,0.2
2023-03-06T07:30:15.582Z,0.2
2023-03-06T07:31:18.733Z,0.2
2023-03-06T07:32:22.438Z,0.2
2023-03-06T07:33:25.924Z,0.2
2023-03-06T07:34:28.749Z,0.3
2023-03-06T07:35:33.073Z,0.4
2023-03-06T07:36:35.749Z,0.3
2023-03-06T07:37:39.119Z,0.3
2023-03-06T07:38:42.865Z,0.3
2023-03-06T07:39:45.911Z,0.3
2023-03-06T07:40:49.323Z,0.3
2023-03-06T07:41:52.448Z,0.3
2023-03-06T07:43:09.385Z,0.4
2023-03-06T07:44:23.118Z,0.4
2023-03-06T07:45:26.641Z,0.3
2023-03-06T07:46:29.825Z,0.3
2023-03-06T07:47:33.425Z,0.3
2023-03-06T07:48:36.915Z,0.2
2023-03-06T07:49:39.851Z,0.3
2023-03-06T07:50:43.402Z,0.3
2023-03-06T07:51:46.883Z,0.2
2023-03-06T07:52:50.691Z,0.2
2023-03-06T07:53:53.861Z,0.2
2023-03-06T07:54:56.926Z,0.2
2023-03-06T07:55:59.742Z,0.2
2023-03-06T07:57:03.817Z,0.2
2023-03-06T07:58:06.940Z,0.3
2023-03-06T07:59:09.914Z,0.3
2023-03-06T08:00:14.042Z,0.3
2023-03-06T08:01:17.055Z,0.3
2023-03-06T08:02:21.063Z,0.3
2023-03-06T08:03:24.508Z,0.3
2023-03-06T08:04:31.542Z,0.4
2023-03-06T08:05:34.926Z,0.4
2023-03-06T08:06:38.156Z,0.5
2023-03-06T08:07:40.984Z,0.5
2023-03-06T08:08:44.418Z,0.5
2023-03-06T08:09:47.271Z,0.5
2023-03-06T08:10:50.363Z,0.5
2023-03-06T08:11:53.081Z,0.5
2023-03-06T08:12:56.176Z,0.5
2023-03-06T08:13:59.651Z,0.5
2023-03-06T08:15:02.711Z,0.6
2023-03-06T08:16:06.774Z,0.6
2023-03-06T08:17:10.255Z,0.6
2023-03-06T08:18:13.335Z,0.8
2023-03-06T08:19:16.325Z,0.8
2023-03-06T08:20:19.387Z,0.9
2023-03-06T08:21:22.694Z,1
2023-03-06T08:22:26.587Z,1
2023-03-06T08:23:29.704Z,1.1
2023-03-06T08:24:33.288Z,1.2
2023-03-06T08:25:36.680Z,1.3
2023-03-06T08:26:39.789Z,1.3
2023-03-06T08:27:43.027Z,1.3
2023-03-06T08:28:46.596Z,1.3
2023-03-06T08:29:49.713Z,1.2
2023-03-06T08:30:52.512Z,1.2
2023-03-06T08:31:56.023Z,1.3
2023-03-06T08:32:59.410Z,1.4
2023-03-06T08:34:02.813Z,1.4
2023-03-06T08:35:05.643Z,1.5
2023-03-06T08:36:09.067Z,1.6
2023-03-06T08:37:12.564Z,1.7
2023-03-06T08:38:16.755Z,1.8
2023-03-06T08:39:20.175Z,1.9
2023-03-06T08:40:23.939Z,2
2023-03-06T08:41:27.036Z,2.1
2023-03-06T08:42:30.452Z,2.2
2023-03-06T08:43:33.869Z,2.3
2023-03-06T08:44:37.517Z,2.4
2023-03-06T08:45:40.872Z,2.5
2023-03-06T08:46:44.107Z,2.6
2023-03-06T08:47:46.802Z,2.6
2023-03-06T08:48:50.553Z,2.6
2023-03-06T08:49:54.576Z,2.7
2023-03-06T08:50:57.639Z,2.7
2023-03-06T08:52:01.317Z,2.8
2023-03-06T08:53:04.649Z,2.9
2023-03-06T08:54:08.777Z,3
2023-03-06T08:55:15.058Z,3.1
2023-03-06T08:56:18.113Z,3.2
2023-03-06T08:57:21.574Z,3.2
2023-03-06T08:58:24.652Z,3.2
2023-03-06T08:59:28.674Z,3.2
2023-03-06T09:00:31.510Z,3.2
2023-03-06T09:01:35.361Z,3.2
2023-03-06T09:02:39.653Z,3.3
2023-03-06T09:03:42.764Z,3.5
2023-03-06T09:04:46.211Z,3.5
2023-03-06T09:05:49.408Z,3.6
2023-03-06T09:06:56.523Z,3.5
2023-03-06T09:07:59.432Z,3.6
2023-03-06T09:09:03.079Z,3.6
2023-03-06T09:10:06.896Z,3.7
2023-03-06T09:11:09.458Z,3.8
2023-03-06T09:12:12.838Z,3.9
2023-03-06T09:13:15.936Z,3.9
2023-03-06T09:14:19.244Z,3.9
2023-03-06T09:15:22.410Z,3.9
2023-03-06T09:16:25.884Z,3.9
2023-03-06T09:17:29.372Z,4
2023-03-06T09:18:32.889Z,4.1
2023-03-06T09:19:36.037Z,4.2
2023-03-06T09:20:39.608Z,4.3
2023-03-06T09:21:43.004Z,4.4
2023-03-06T09:22:45.814Z,4.5
2023-03-06T09:23:48.525Z,4.6
2023-03-06T09:24:52.812Z,4.8
2023-03-06T09:25:57.567Z,4.9
2023-03-06T09:27:00.720Z,5
2023-03-06T09:28:13.903Z,5.1
2023-03-06T09:29:17.677Z,5.3
2023-03-06T09:30:20.983Z,5.5
2023-03-06T09:31:23.814Z,5.7
2023-03-06T09:32:27.576Z,5.8
2023-03-06T09:33:30.826Z,5.9
2023-03-06T09:34:33.141Z,5.9
2023-03-06T09:35:36.789Z,5.8
2023-03-06T09:36:58.642Z,5.8
2023-03-06T09:38:02.233Z,5.8
2023-03-06T09:39:05.854Z,5.9
2023-03-06T09:40:09.536Z,5.9
2023-03-06T09:41:13.786Z,5.7
2023-03-06T09:42:17.010Z,5.5
2023-03-06T09:43:21.115Z,5.6
2023-03-06T09:44:24.572Z,5.7
2023-03-06T09:45:27.385Z,5.8
2023-03-06T09:46:31.618Z,6
2023-03-06T09:47:35.765Z,5.8
2023-03-06T09:48:39.299Z,5.6
2023-03-06T09:49:42.127Z,5.5
2023-03-06T09:50:45.514Z,5.6
2023-03-06T09:51:49.240Z,5.7
2023-03-06T09:52:52.333Z,5.7
2023-03-06T09:53:55.792Z,5.5
2023-03-06T09:54:59.234Z,5.6
2023-03-06T09:56:02.332Z,5.8
2023-03-06T09:57:06.129Z,5.9
2023-03-06T09:58:09.618Z,6.1
2023-03-06T09:59:12.851Z,6.2
2023-03-06T10:00:16.275Z,6.3
2023-03-06T10:01:20.409Z,6.3
2023-03-06T10:02:25.366Z,6.4
2023-03-06T10:03:29.078Z,6.4
2023-03-06T10:04:32.878Z,6.3
2023-03-06T10:05:35.863Z,6.2
2023-03-06T10:06:39.239Z,6.3
2023-03-06T10:07:41.955Z,6.4
2023-03-06T10:08:45.090Z,6.5
2023-03-06T10:09:48.593Z,6.4
2023-03-06T10:10:52.328Z,6.2
2023-03-06T10:11:56.031Z,5.9
2023-03-06T10:12:59.910Z,5.6
2023-03-06T10:14:03.435Z,5.4
2023-03-06T10:15:07.263Z,5.4
2023-03-06T10:16:10.907Z,5.5
2023-03-06T10:17:15.053Z,5.6
2023-03-06T10:18:18.410Z,5.9
2023-03-06T10:19:22.508Z,6.1
2023-03-06T10:20:26.226Z,6.4
2023-03-06T10:21:29.635Z,6.4
2023-03-06T10:22:31.818Z,6.4
2023-03-06T10:23:35.027Z,6.3
2023-03-06T10:24:38.774Z,6.2
2023-03-06T10:25:43.124Z,5.9
2023-03-06T10:26:46.532Z,5.7
2023-03-06T10:27:49.750Z,5.6
2023-03-06T10:28:53.590Z,5.6
2023-03-06T10:30:05.520Z,5.8
2023-03-06T10:31:09.763Z,6.2
2023-03-06T10:32:14.780Z,6.3
2023-03-06T10:33:18.013Z,6.5
2023-03-06T10:34:21.161Z,6.8
2023-03-06T10:35:24.508Z,6.9
2023-03-06T10:36:28.239Z,6.8
2023-03-06T10:37:34.426Z,6.7
2023-03-06T10:38:36.862Z,6.8
2023-03-06T10:39:40.940Z,6.9
2023-03-06T10:40:44.241Z,7.1
2023-03-06T10:41:47.932Z,7.2
2023-03-06T10:43:13.522Z,7.6
2023-03-06T10:44:17.111Z,7.7
2023-03-06T10:45:20.043Z,7.6
2023-03-06T10:46:23.752Z,7.3
2023-03-06T10:47:27.909Z,7
2023-03-06T10:48:30.715Z,6.8
2023-03-06T10:49:34.475Z,6.8
2023-03-06T10:50:37.876Z,6.6
2023-03-06T10:51:41.620Z,6.4
2023-03-06T10:52:45.021Z,6.3
2023-03-06T10:53:47.817Z,6.3
2023-03-06T10:54:51.240Z,6.3
2023-03-06T10:55:54.956Z,6.3
2023-03-06T10:56:57.776Z,6.2
2023-03-06T10:58:01.247Z,6.3
2023-03-06T10:59:04.228Z,6.2
2023-03-06T11:00:08.591Z,6.2
2023-03-06T11:01:11.657Z,6.5
2023-03-06T11:02:15.488Z,6.5
2023-03-06T11:03:18.533Z,6.6
2023-03-06T11:04:21.910Z,6.5
2023-03-06T11:05:25.566Z,6.6
2023-03-06T11:06:28.909Z,6.4
2023-03-06T11:07:33.086Z,6.4
2023-03-06T11:08:36.270Z,6.5
2023-03-06T11:09:40.035Z,6.6
2023-03-06T11:10:43.381Z,6.8
2023-03-06T11:11:46.832Z,7.1
2023-03-06T11:12:49.955Z,7.3
2023-03-06T11:13:53.319Z,7.3
2023-03-06T11:14:56.654Z,7.4
2023-03-06T11:16:00.972Z,7.3
2023-03-06T11:17:04.327Z,7.4
2023-03-06T11:18:07.344Z,7.3
2023-03-06T11:19:10.445Z,7.4
2023-03-06T11:20:13.584Z,7.4
2023-03-06T11:21:17.057Z,7.1
2023-03-06T11:22:20.495Z,7
2023-03-06T11:23:24.498Z,7
2023-03-06T11:24:27.220Z,7.1
2023-03-06T11:25:30.328Z,7
2023-03-06T11:26:34.073Z,7.1
2023-03-06T11:27:36.926Z,7.3
2023-03-06T11:28:40.100Z,7.3
2023-03-06T11:29:44.364Z,7.4
2023-03-06T11:30:47.263Z,7.5
2023-03-06T11:31:50.842Z,7.5
2023-03-06T11:32:54.078Z,7.6
2023-03-06T11:33:57.761Z,7.6
2023-03-06T11:35:01.151Z,7.5
2023-03-06T11:36:04.278Z,7.4
2023-03-06T11:37:07.371Z,7.5
2023-03-06T11:38:10.215Z,7.8
2023-03-06T11:39:16.812Z,7.8
2023-03-06T11:40:20.287Z,7.9
2023-03-06T11:41:23.271Z,8.3
2023-03-06T11:42:26.675Z,8.6
2023-03-06T11:43:30.313Z,8.9
2023-03-06T11:44:33.403Z,9
2023-03-06T11:45:37.138Z,8.9
2023-03-06T11:46:40.206Z,9.1
2023-03-06T11:47:44.430Z,9.1
2023-03-06T11:48:47.341Z,9.2
2023-03-06T11:49:50.769Z,9.2
2023-03-06T11:50:54.285Z,9.2
2023-03-06T11:51:57.095Z,9.4
2023-03-06T11:53:01.151Z,9.6
2023-03-06T11:54:04.505Z,9.8
2023-03-06T11:55:07.007Z,9.7
2023-03-06T11:56:10.192Z,9.8
2023-03-06T11:57:12.985Z,9.7
2023-03-06T11:58:15.424Z,9.9
2023-03-06T11:59:18.493Z,10.1
2023-03-06T12:00:21.241Z,10.1
2023-03-06T12:01:25.023Z,10.1
2023-03-06T12:02:28.716Z,9.9
2023-03-06T12:03:32.974Z,9.8
2023-03-06T12:04:36.334Z,9.9
2023-03-06T12:05:39.786Z,10
2023-03-06T12:06:43.051Z,10.1
2023-03-06T12:07:46.487Z,10.3
2023-03-06T12:08:49.925Z,10.6
2023-03-06T12:09:53.938Z,10.7
2023-03-06T12:10:57.720Z,10.9
2023-03-06T12:12:00.826Z,10.7
2023-03-06T12:13:04.609Z,10.4
2023-03-06T12:14:08.010Z,9.8
2023-03-06T12:15:11.815Z,9.5
2023-03-06T12:16:15.074Z,9.1
2023-03-06T12:17:18.841Z,9
2023-03-06T12:18:21.713Z,8.9
2023-03-06T12:19:25.681Z,9
2023-03-06T12:20:28.914Z,9.1
2023-03-06T12:21:32.983Z,9.2
2023-03-06T12:22:36.647Z,9.4
2023-03-06T12:23:39.724Z,9.4
2023-03-06T12:24:42.794Z,9.7
2023-03-06T12:25:46.075Z,9.6
2023-03-06T12:26:49.885Z,9.8
2023-03-06T12:27:53.541Z,10.1
2023-03-06T12:28:56.923Z,10.3
2023-03-06T12:30:00.392Z,10.6
2023-03-06T12:31:03.513Z,10.5
2023-03-06T12:32:07.996Z,10.4
2023-03-06T12:33:11.384Z,10.1
2023-03-06T12:34:15.069Z,10.2
2023-03-06T12:35:19.546Z,10.3
2023-03-06T12:36:23.694Z,10.3
2023-03-06T12:37:27.113Z,10.2
2023-03-06T12:38:30.548Z,10.4
2023-03-06T12:39:33.158Z,10.3
2023-03-06T12:40:37.181Z,10.3
2023-03-06T12:41:40.686Z,10.3
2023-03-06T12:42:43.831Z,10.4
2023-03-06T12:43:46.880Z,10.5
2023-03-06T12:44:50.343Z,10.8
2023-03-06T12:45:54.467Z,11
2023-03-06T12:46:58.274Z,11.3
2023-03-06T12:48:00.815Z,11.5
2023-03-06T12:49:04.557Z,11.5
2023-03-06T12:50:07.645Z,11.4
2023-03-06T12:51:11.222Z,11.2
2023-03-06T12:52:31.289Z,11.3
2023-03-06T12:53:34.653Z,11.2
2023-03-06T12:54:38.137Z,11
2023-03-06T12:55:40.566Z,11.2
2023-03-06T12:56:43.674Z,11.1
2023-03-06T12:57:46.189Z,10.9
2023-03-06T12:58:49.317Z,10.9
2023-03-06T12:59:53.062Z,10.8
2023-03-06T13:01:06.209Z,10.6
2023-03-06T13:02:09.954Z,10.4
2023-03-06T13:03:13.128Z,10.2
2023-03-06T13:04:15.922Z,9.7
2023-03-06T13:05:18.769Z,9.4
2023-03-06T13:06:23.057Z,9.2
2023-03-06T13:07:26.062Z,8.9
2023-03-06T13:08:29.753Z,8.6
2023-03-06T13:09:33.182Z,8.4
2023-03-06T13:10:36.010Z,8.4
2023-03-06T13:11:39.547Z,8.4
2023-03-06T13:12:42.997Z,8.2
2023-03-06T13:13:46.163Z,8.1
2023-03-06T13:14:56.422Z,8
2023-03-06T13:15:59.526Z,8.1
2023-03-06T13:17:02.396Z,8.2
2023-03-06T13:18:06.094Z,8.2
2023-03-06T13:19:09.390Z,8.1
2023-03-06T13:20:12.612Z,8.1
2023-03-06T13:21:15.431Z,8
2023-03-06T13:22:19.206Z,8.1
2023-03-06T13:23:22.361Z,8.2
2023-03-06T13:24:26.081Z,8.4
2023-03-06T13:25:30.072Z,8.8
2023-03-06T13:26:33.463Z,9.1
2023-03-06T13:27:36.544Z,9.2
2023-03-06T13:28:39.318Z,9.1
2023-03-06T13:29:42.712Z,9
2023-03-06T13:30:45.913Z,9
2023-03-06T13:31:49.265Z,9.1
2023-03-06T13:32:52.910Z,9.1
2023-03-06T13:33:56.464Z,9
2023-03-06T13:34:59.652Z,8.7
2023-03-06T13:36:03.143Z,8.5
2023-03-06T13:37:06.780Z,8.4
2023-03-06T13:38:10.566Z,8.2
2023-03-06T13:39:14.337Z,8.1
2023-03-06T13:40:17.888Z,8
2023-03-06T13:41:21.043Z,8.2
2023-03-06T13:42:25.077Z,8.4
2023-03-06T13:43:28.441Z,8.7
2023-03-06T13:44:32.243Z,8.9
2023-03-06T13:45:35.032Z,9.3
2023-03-06T13:46:38.214Z,9.6
2023-03-06T13:48:46.645Z,9.9
2023-03-06T13:49:50.756Z,9.8
2023-03-06T13:50:53.533Z,10
2023-03-06T13:51:56.621Z,9.8
2023-03-06T13:53:00.268Z,9.4
2023-03-06T13:54:03.912Z,9.3
2023-03-06T13:55:07.400Z,9.1
2023-03-06T13:56:10.826Z,9.1
2023-03-06T13:57:13.933Z,9.1
2023-03-06T13:58:16.370Z,8.9
2023-03-06T13:59:19.415Z,8.8
2023-03-06T14:00:22.950Z,8.8
2023-03-06T14:01:26.295Z,8.6
2023-03-06T14:02:30.739Z,8.4
2023-03-06T14:03:34.490Z,8.2
2023-03-06T14:04:37.874Z,8.2
2023-03-06T14:05:41.016Z,8.2
2023-03-06T14:06:43.868Z,8.1
2023-03-06T14:07:46.962Z,8.3
2023-03-06T14:08:49.562Z,8.4
2023-03-06T14:09:53.794Z,8.5
2023-03-06T14:10:57.435Z,8.7
2023-03-06T14:11:59.943Z,8.9
2023-03-06T14:13:03.084Z,8.9
2023-03-06T14:14:06.898Z,9.2
2023-03-06T14:15:10.246Z,9.2
2023-03-06T14:16:13.672Z,9.4
2023-03-06T14:17:16.567Z,9.7
2023-03-06T14:18:19.304Z,10.1
2023-03-06T14:19:22.001Z,10.4
2023-03-06T14:20:25.391Z,10.7
2023-03-06T14:21:28.852Z,11
2023-03-06T14:22:32.287Z,11.2
2023-03-06T14:23:35.697Z,11.2
2023-03-06T14:24:39.485Z,11.2
2023-03-06T14:25:43.652Z,11.4
2023-03-06T14:26:46.830Z,11.5
2023-03-06T14:27:50.386Z,11.6
2023-03-06T14:28:54.150Z,11.7
2023-03-06T14:29:57.276Z,11.8
2023-03-06T14:31:00.840Z,11.9
2023-03-06T14:32:04.443Z,11.9
2023-03-06T14:33:08.122Z,11.8
2023-03-06T14:34:11.277Z,11.3
2023-03-06T14:35:14.034Z,10.8
2023-03-06T14:36:17.505Z,10.4
2023-03-06T14:37:21.090Z,10.3